Aérodrome :







RETROUVEZ-NOUS SUR...

 
LOGIN :

S'inscrire | Disclaimer

   EN    FR    IT 

 









Légende :    VFR   VFR Marginal   IFR   IFR Intensif   IFR Très Intensif
Visi : 
Plafond : 
>= 8 km
>= 3000ft
5 à 8 km
1000 à 3000 ft
1500m à 5 km
500 à 1000 ft
800 à 1500m
200 à 500 ft
< 800m
< 200 ft
Symboles :   Orages  Brouillard  Fortes neiges  Fortes précipitations  Vent > 20 kt






- Altitude de l'aérodrome : 10 ft
- Code IATA : ORG


SMZO - Zorg en Hoop

DERNIER METAR :
  • 241600Z 03012KT 8000 SCT025 SCT035 30/22 Q1013 NOSIG

METARs EXPIRÉS :
  • 241500Z 04010KT 8000 SCT025 SCT035 29/23 Q1014 NOSIG
  • 241400Z 08010KT 8000 SCT020 SCT030 29/23 Q1014 NOSIG

TAF TAF SMZO
Valide du 24 à 12h jusqu'au 25 à 12h UTC


241000Z 2412/2512 06008KT 9999 SCT015 TX31/2417Z TN23/2509Z
PROB30
TEMPO 2415/2420 4000 SHRA BKN020



MET'MAP, la Météo Aéronautique d'un coup d'oeil ! - Copyright ORBIFLY Décembre 2007 - Disclaimer

ORBIFLY MET'MAP TEAM :

Programmation & Développement : Alexandra Zaïnal
Sur une idée originale de : Baudouin d'Aumeries
Assistance à la programmation : Marc-Olivier Méhu
Soutien technique & logistique : Manuel Goepfert

Contact : metmap@orbifly.com




SOURCES & CREDITS :

   NOAA